sensor_id;sensor_type;location;lat;lon;timestamp;pressure;altitude;pressure_sealevel;temperature;humidity
19005;BME280;9635;52.078;8.648;2023-08-30T00:02:45;99703.69;;;13.50;77.59
19005;BME280;9635;52.078;8.648;2023-08-30T00:07:48;99707.88;;;13.44;77.99
19005;BME280;9635;52.078;8.648;2023-08-30T00:12:51;99714.06;;;13.37;78.34
19005;BME280;9635;52.078;8.648;2023-08-30T00:17:55;99704.81;;;13.39;78.06
19005;BME280;9635;52.078;8.648;2023-08-30T00:22:58;99703.09;;;13.38;78.24
19005;BME280;9635;52.078;8.648;2023-08-30T00:28:01;99700.44;;;13.46;77.68
19005;BME280;9635;52.078;8.648;2023-08-30T00:33:05;99693.63;;;13.34;77.64
19005;BME280;9635;52.078;8.648;2023-08-30T00:38:08;99692.91;;;13.32;77.95
19005;BME280;9635;52.078;8.648;2023-08-30T00:43:12;99691.47;;;13.38;77.91
19005;BME280;9635;52.078;8.648;2023-08-30T00:48:17;99692.41;;;13.28;77.88
19005;BME280;9635;52.078;8.648;2023-08-30T00:53:21;99687.78;;;13.39;78.27
19005;BME280;9635;52.078;8.648;2023-08-30T00:58:24;99678.41;;;13.51;77.59
19005;BME280;9635;52.078;8.648;2023-08-30T01:03:29;99684.16;;;13.56;76.89
19005;BME280;9635;52.078;8.648;2023-08-30T01:08:33;99675.06;;;13.57;76.70
19005;BME280;9635;52.078;8.648;2023-08-30T01:13:43;99680.94;;;13.53;76.65
19005;BME280;9635;52.078;8.648;2023-08-30T01:18:50;99678.44;;;13.59;76.66
19005;BME280;9635;52.078;8.648;2023-08-30T01:23:58;99672.78;;;13.79;76.30
19005;BME280;9635;52.078;8.648;2023-08-30T01:29:03;99664.03;;;13.85;75.67
19005;BME280;9635;52.078;8.648;2023-08-30T01:34:07;99668.53;;;13.68;75.73
19005;BME280;9635;52.078;8.648;2023-08-30T01:39:11;99663.31;;;13.66;76.14
19005;BME280;9635;52.078;8.648;2023-08-30T01:44:17;99675.38;;;13.54;75.93
19005;BME280;9635;52.078;8.648;2023-08-30T01:49:21;99670.50;;;13.49;76.33
19005;BME280;9635;52.078;8.648;2023-08-30T01:54:25;99669.19;;;13.36;76.16
19005;BME280;9635;52.078;8.648;2023-08-30T01:59:30;99666.13;;;13.31;76.81
19005;BME280;9635;52.078;8.648;2023-08-30T02:04:33;99661.84;;;13.20;76.76
19005;BME280;9635;52.078;8.648;2023-08-30T02:09:40;99672.31;;;13.23;77.12
19005;BME280;9635;52.078;8.648;2023-08-30T02:14:48;99667.94;;;13.30;76.62
19005;BME280;9635;52.078;8.648;2023-08-30T02:19:51;99663.38;;;13.22;76.93
19005;BME280;9635;52.078;8.648;2023-08-30T02:24:55;99658.34;;;13.27;77.09
19005;BME280;9635;52.078;8.648;2023-08-30T02:29:59;99662.41;;;13.32;76.80
19005;BME280;9635;52.078;8.648;2023-08-30T02:35:03;99661.09;;;13.36;76.56
19005;BME280;9635;52.078;8.648;2023-08-30T02:40:07;99660.63;;;13.40;76.52
19005;BME280;9635;52.078;8.648;2023-08-30T02:45:14;99660.69;;;13.48;76.23
19005;BME280;9635;52.078;8.648;2023-08-30T02:50:17;99657.94;;;13.40;76.36
19005;BME280;9635;52.078;8.648;2023-08-30T02:55:19;99648.53;;;13.44;76.03
19005;BME280;9635;52.078;8.648;2023-08-30T03:00:24;99644.22;;;13.34;76.29
19005;BME280;9635;52.078;8.648;2023-08-30T03:05:27;99648.22;;;13.30;76.20
19005;BME280;9635;52.078;8.648;2023-08-30T03:10:30;99643.16;;;13.26;76.23
19005;BME280;9635;52.078;8.648;2023-08-30T03:15:35;99644.13;;;13.17;76.72
19005;BME280;9635;52.078;8.648;2023-08-30T03:20:38;99635.34;;;13.15;76.67
19005;BME280;9635;52.078;8.648;2023-08-30T03:25:41;99641.44;;;13.17;76.79
19005;BME280;9635;52.078;8.648;2023-08-30T03:30:45;99648.03;;;13.23;76.60
19005;BME280;9635;52.078;8.648;2023-08-30T03:35:48;99649.25;;;13.28;76.33
19005;BME280;9635;52.078;8.648;2023-08-30T03:40:53;99641.25;;;13.19;76.38
19005;BME280;9635;52.078;8.648;2023-08-30T03:45:57;99635.56;;;13.22;76.50
19005;BME280;9635;52.078;8.648;2023-08-30T03:51:01;99645.88;;;13.26;76.12
19005;BME280;9635;52.078;8.648;2023-08-30T03:56:03;99643.44;;;13.15;76.06
19005;BME280;9635;52.078;8.648;2023-08-30T04:01:08;99639.00;;;13.06;76.49
19005;BME280;9635;52.078;8.648;2023-08-30T04:06:12;99641.34;;;13.01;76.65
19005;BME280;9635;52.078;8.648;2023-08-30T04:11:15;99636.72;;;12.93;77.13
19005;BME280;9635;52.078;8.648;2023-08-30T04:16:21;99634.66;;;12.87;77.36
19005;BME280;9635;52.078;8.648;2023-08-30T04:21:24;99628.91;;;12.82;77.61
19005;BME280;9635;52.078;8.648;2023-08-30T04:26:27;99622.66;;;12.81;77.81
19005;BME280;9635;52.078;8.648;2023-08-30T04:31:32;99622.34;;;12.85;77.67
19005;BME280;9635;52.078;8.648;2023-08-30T04:36:36;99620.88;;;12.90;77.49
19005;BME280;9635;52.078;8.648;2023-08-30T04:41:38;99622.72;;;12.90;77.71
19005;BME280;9635;52.078;8.648;2023-08-30T04:46:43;99626.72;;;12.86;77.35
19005;BME280;9635;52.078;8.648;2023-08-30T04:51:47;99633.84;;;12.69;77.81
19005;BME280;9635;52.078;8.648;2023-08-30T04:56:50;99633.59;;;12.80;78.26
19005;BME280;9635;52.078;8.648;2023-08-30T05:01:54;99624.19;;;12.84;77.99
19005;BME280;9635;52.078;8.648;2023-08-30T05:07:00;99615.84;;;12.95;77.94
19005;BME280;9635;52.078;8.648;2023-08-30T05:12:05;99620.28;;;13.04;77.56
19005;BME280;9635;52.078;8.648;2023-08-30T05:17:10;99624.38;;;13.09;76.98
19005;BME280;9635;52.078;8.648;2023-08-30T05:22:13;99616.44;;;13.07;77.11
19005;BME280;9635;52.078;8.648;2023-08-30T05:27:16;99609.88;;;13.10;77.27
19005;BME280;9635;52.078;8.648;2023-08-30T05:32:21;99616.44;;;13.07;77.22
19005;BME280;9635;52.078;8.648;2023-08-30T05:37:39;99608.19;;;13.09;77.66
19005;BME280;9635;52.078;8.648;2023-08-30T05:43:03;99610.06;;;13.16;77.24
19005;BME280;9635;52.078;8.648;2023-08-30T05:48:07;99588.03;;;13.21;77.77
19005;BME280;9635;52.078;8.648;2023-08-30T05:53:10;99584.25;;;13.40;77.72
19005;BME280;9635;52.078;8.648;2023-08-30T05:58:13;99587.16;;;13.46;77.24
19005;BME280;9635;52.078;8.648;2023-08-30T06:03:18;99590.91;;;13.54;76.99
19005;BME280;9635;52.078;8.648;2023-08-30T06:08:21;99589.75;;;13.64;76.76
19005;BME280;9635;52.078;8.648;2023-08-30T06:13:24;99576.78;;;13.76;76.72
19005;BME280;9635;52.078;8.648;2023-08-30T06:18:30;99574.69;;;14.37;76.08
19005;BME280;9635;52.078;8.648;2023-08-30T06:23:33;99570.53;;;14.59;73.83
19005;BME280;9635;52.078;8.648;2023-08-30T06:28:36;99570.69;;;14.41;73.46
19005;BME280;9635;52.078;8.648;2023-08-30T06:33:40;99571.47;;;14.33;73.69
19005;BME280;9635;52.078;8.648;2023-08-30T06:38:44;99568.63;;;14.35;73.61
19005;BME280;9635;52.078;8.648;2023-08-30T06:43:46;99561.72;;;14.32;74.36
19005;BME280;9635;52.078;8.648;2023-08-30T06:48:51;99556.81;;;14.60;74.02
19005;BME280;9635;52.078;8.648;2023-08-30T06:53:53;99543.63;;;14.66;74.06
19005;BME280;9635;52.078;8.648;2023-08-30T06:59:02;99562.19;;;14.85;73.74
19005;BME280;9635;52.078;8.648;2023-08-30T07:04:06;99550.69;;;14.91;73.23
19005;BME280;9635;52.078;8.648;2023-08-30T07:09:09;99552.44;;;15.23;72.90
19005;BME280;9635;52.078;8.648;2023-08-30T07:14:12;99555.41;;;15.53;72.09
19005;BME280;9635;52.078;8.648;2023-08-30T07:19:17;99561.13;;;15.58;71.07
19005;BME280;9635;52.078;8.648;2023-08-30T07:24:20;99562.31;;;15.56;71.10
19005;BME280;9635;52.078;8.648;2023-08-30T07:29:24;99559.38;;;15.65;71.61
19005;BME280;9635;52.078;8.648;2023-08-30T07:34:28;99543.09;;;15.74;71.70
19005;BME280;9635;52.078;8.648;2023-08-30T07:39:31;99540.78;;;15.93;69.75
19005;BME280;9635;52.078;8.648;2023-08-30T07:44:34;99540.53;;;16.03;69.55
19005;BME280;9635;52.078;8.648;2023-08-30T07:49:38;99530.09;;;16.61;69.43
19005;BME280;9635;52.078;8.648;2023-08-30T07:54:41;99526.19;;;17.08;68.06
19005;BME280;9635;52.078;8.648;2023-08-30T07:59:44;99532.28;;;17.10;66.15
19005;BME280;9635;52.078;8.648;2023-08-30T08:04:48;99533.88;;;17.04;66.78
19005;BME280;9635;52.078;8.648;2023-08-30T08:09:53;99528.28;;;17.06;66.24
19005;BME280;9635;52.078;8.648;2023-08-30T08:14:56;99540.44;;;16.95;65.75
19005;BME280;9635;52.078;8.648;2023-08-30T08:20:01;99535.97;;;17.17;64.89
19005;BME280;9635;52.078;8.648;2023-08-30T08:25:04;99535.09;;;17.02;65.72
19005;BME280;9635;52.078;8.648;2023-08-30T08:30:08;99524.66;;;18.01;63.05
19005;BME280;9635;52.078;8.648;2023-08-30T08:35:14;99521.97;;;19.55;59.24
19005;BME280;9635;52.078;8.648;2023-08-30T08:40:17;99517.78;;;20.34;55.38
19005;BME280;9635;52.078;8.648;2023-08-30T08:45:34;99512.97;;;20.56;54.23
19005;BME280;9635;52.078;8.648;2023-08-30T08:50:39;99515.38;;;19.84;55.08
19005;BME280;9635;52.078;8.648;2023-08-30T08:55:43;99511.75;;;19.16;57.09
19005;BME280;9635;52.078;8.648;2023-08-30T09:00:47;99516.66;;;18.43;58.04
19005;BME280;9635;52.078;8.648;2023-08-30T09:05:52;99514.16;;;18.69;57.35
19005;BME280;9635;52.078;8.648;2023-08-30T09:10:56;99513.56;;;18.46;56.82
19005;BME280;9635;52.078;8.648;2023-08-30T09:15:59;99511.56;;;19.24;55.96
19005;BME280;9635;52.078;8.648;2023-08-30T09:21:08;99515.13;;;18.83;54.99
19005;BME280;9635;52.078;8.648;2023-08-30T09:26:12;99507.06;;;19.44;54.53
19005;BME280;9635;52.078;8.648;2023-08-30T09:31:17;99503.13;;;19.54;54.01
19005;BME280;9635;52.078;8.648;2023-08-30T09:36:25;99502.91;;;20.50;52.24
19005;BME280;9635;52.078;8.648;2023-08-30T09:41:28;99491.97;;;20.63;50.08
19005;BME280;9635;52.078;8.648;2023-08-30T09:46:31;99490.88;;;19.84;50.39
19005;BME280;9635;52.078;8.648;2023-08-30T09:51:53;99489.38;;;19.82;50.70
19005;BME280;9635;52.078;8.648;2023-08-30T09:56:59;99475.94;;;19.19;51.09
19005;BME280;9635;52.078;8.648;2023-08-30T10:02:03;99477.66;;;19.81;50.33
19005;BME280;9635;52.078;8.648;2023-08-30T10:07:09;99471.19;;;19.89;49.54
19005;BME280;9635;52.078;8.648;2023-08-30T10:12:12;99464.72;;;20.50;47.67
19005;BME280;9635;52.078;8.648;2023-08-30T10:17:18;99467.63;;;20.08;47.47
19005;BME280;9635;52.078;8.648;2023-08-30T10:22:22;99455.06;;;20.27;45.81
19005;BME280;9635;52.078;8.648;2023-08-30T10:27:26;99454.84;;;20.42;45.06
19005;BME280;9635;52.078;8.648;2023-08-30T10:32:29;99448.25;;;20.90;44.48
19005;BME280;9635;52.078;8.648;2023-08-30T10:37:34;99443.06;;;21.33;43.93
19005;BME280;9635;52.078;8.648;2023-08-30T10:42:38;99432.63;;;20.52;46.16
19005;BME280;9635;52.078;8.648;2023-08-30T10:47:41;99437.84;;;20.00;46.63
19005;BME280;9635;52.078;8.648;2023-08-30T10:52:54;99437.84;;;19.19;47.66
19005;BME280;9635;52.078;8.648;2023-08-30T10:57:58;99435.78;;;18.79;49.03
19005;BME280;9635;52.078;8.648;2023-08-30T11:03:02;99413.91;;;19.01;49.12
19005;BME280;9635;52.078;8.648;2023-08-30T11:08:10;99420.59;;;18.98;49.51
19005;BME280;9635;52.078;8.648;2023-08-30T11:13:14;99417.78;;;18.78;49.42
19005;BME280;9635;52.078;8.648;2023-08-30T11:18:19;99415.00;;;18.72;49.79
19005;BME280;9635;52.078;8.648;2023-08-30T11:23:23;99405.66;;;18.81;50.68
19005;BME280;9635;52.078;8.648;2023-08-30T11:28:26;99407.22;;;19.04;49.94
19005;BME280;9635;52.078;8.648;2023-08-30T11:33:29;99401.97;;;18.61;50.15
19005;BME280;9635;52.078;8.648;2023-08-30T11:38:33;99395.47;;;18.62;49.96
19005;BME280;9635;52.078;8.648;2023-08-30T11:43:37;99393.81;;;18.67;49.63
19005;BME280;9635;52.078;8.648;2023-08-30T11:48:41;99381.00;;;18.89;50.29
19005;BME280;9635;52.078;8.648;2023-08-30T11:53:46;99367.72;;;19.21;48.94
19005;BME280;9635;52.078;8.648;2023-08-30T11:58:49;99367.00;;;19.80;47.36
19005;BME280;9635;52.078;8.648;2023-08-30T12:03:53;99362.34;;;20.41;46.42
19005;BME280;9635;52.078;8.648;2023-08-30T12:09:00;99353.28;;;20.60;46.37
19005;BME280;9635;52.078;8.648;2023-08-30T12:14:05;99349.16;;;19.98;45.57
19005;BME280;9635;52.078;8.648;2023-08-30T12:19:08;99354.81;;;19.63;46.41
19005;BME280;9635;52.078;8.648;2023-08-30T12:24:13;99332.59;;;19.66;46.24
19005;BME280;9635;52.078;8.648;2023-08-30T12:29:16;99332.81;;;19.58;46.33
19005;BME280;9635;52.078;8.648;2023-08-30T12:34:19;99337.66;;;19.76;47.21
19005;BME280;9635;52.078;8.648;2023-08-30T12:39:24;99343.88;;;19.43;46.78
19005;BME280;9635;52.078;8.648;2023-08-30T12:44:26;99336.94;;;19.20;47.88
19005;BME280;9635;52.078;8.648;2023-08-30T12:49:29;99346.56;;;18.68;48.85
19005;BME280;9635;52.078;8.648;2023-08-30T12:54:33;99363.16;;;18.39;49.38
19005;BME280;9635;52.078;8.648;2023-08-30T12:59:36;99367.41;;;18.20;50.17
19005;BME280;9635;52.078;8.648;2023-08-30T13:04:39;99362.00;;;17.48;54.23
19005;BME280;9635;52.078;8.648;2023-08-30T13:09:43;99371.66;;;17.58;54.06
19005;BME280;9635;52.078;8.648;2023-08-30T13:14:47;99367.34;;;17.20;58.48
19005;BME280;9635;52.078;8.648;2023-08-30T13:19:50;99360.06;;;17.42;60.35
19005;BME280;9635;52.078;8.648;2023-08-30T13:24:54;99363.88;;;17.12;66.00
19005;BME280;9635;52.078;8.648;2023-08-30T13:29:57;99370.88;;;16.85;69.90
19005;BME280;9635;52.078;8.648;2023-08-30T13:35:01;99373.25;;;16.43;72.59
19005;BME280;9635;52.078;8.648;2023-08-30T13:40:06;99375.16;;;16.20;73.23
19005;BME280;9635;52.078;8.648;2023-08-30T13:45:10;99390.81;;;16.32;73.13
19005;BME280;9635;52.078;8.648;2023-08-30T13:50:15;99401.38;;;15.12;78.29
19005;BME280;9635;52.078;8.648;2023-08-30T13:55:19;99401.19;;;15.68;77.19
19005;BME280;9635;52.078;8.648;2023-08-30T14:00:23;99405.66;;;15.61;80.10
19005;BME280;9635;52.078;8.648;2023-08-30T14:05:26;99400.38;;;15.05;82.29
19005;BME280;9635;52.078;8.648;2023-08-30T14:10:30;99399.94;;;14.37;86.92
19005;BME280;9635;52.078;8.648;2023-08-30T14:15:33;99401.56;;;13.91;90.41
19005;BME280;9635;52.078;8.648;2023-08-30T14:20:35;99398.16;;;13.89;91.50
19005;BME280;9635;52.078;8.648;2023-08-30T14:25:40;99404.41;;;13.73;92.05
19005;BME280;9635;52.078;8.648;2023-08-30T14:30:43;99409.56;;;13.25;95.58
19005;BME280;9635;52.078;8.648;2023-08-30T14:35:46;99404.41;;;13.98;93.67
19005;BME280;9635;52.078;8.648;2023-08-30T14:40:55;99403.72;;;14.04;93.84
19005;BME280;9635;52.078;8.648;2023-08-30T14:46:02;99391.69;;;14.31;93.24
19005;BME280;9635;52.078;8.648;2023-08-30T14:51:12;99391.88;;;14.29;93.88
19005;BME280;9635;52.078;8.648;2023-08-30T14:56:16;99373.00;;;14.05;93.56
19005;BME280;9635;52.078;8.648;2023-08-30T15:01:20;99368.22;;;14.23;94.74
19005;BME280;9635;52.078;8.648;2023-08-30T15:06:23;99365.00;;;14.36;94.83
19005;BME280;9635;52.078;8.648;2023-08-30T15:11:27;99366.38;;;14.40;94.68
19005;BME280;9635;52.078;8.648;2023-08-30T15:16:30;99371.22;;;14.36;93.86
19005;BME280;9635;52.078;8.648;2023-08-30T15:21:35;99383.56;;;14.31;94.12
19005;BME280;9635;52.078;8.648;2023-08-30T15:26:39;99387.34;;;14.05;94.77
19005;BME280;9635;52.078;8.648;2023-08-30T15:31:43;99384.16;;;13.93;94.70
19005;BME280;9635;52.078;8.648;2023-08-30T15:36:47;99389.91;;;13.82;94.77
19005;BME280;9635;52.078;8.648;2023-08-30T15:41:51;99391.94;;;13.80;94.39
19005;BME280;9635;52.078;8.648;2023-08-30T15:46:54;99387.38;;;13.97;95.06
19005;BME280;9635;52.078;8.648;2023-08-30T15:51:57;99385.34;;;13.91;93.88
19005;BME280;9635;52.078;8.648;2023-08-30T15:57:01;99386.53;;;13.80;93.63
19005;BME280;9635;52.078;8.648;2023-08-30T16:02:04;99375.06;;;13.78;94.59
19005;BME280;9635;52.078;8.648;2023-08-30T16:07:07;99377.06;;;13.60;93.37
19005;BME280;9635;52.078;8.648;2023-08-30T16:12:11;99380.78;;;13.42;94.38
19005;BME280;9635;52.078;8.648;2023-08-30T16:17:14;99387.03;;;13.67;94.50
19005;BME280;9635;52.078;8.648;2023-08-30T16:22:19;99380.47;;;13.62;94.57
19005;BME280;9635;52.078;8.648;2023-08-30T16:27:23;99376.44;;;13.66;94.79
19005;BME280;9635;52.078;8.648;2023-08-30T16:32:26;99380.31;;;13.71;94.14
19005;BME280;9635;52.078;8.648;2023-08-30T16:37:29;99385.19;;;13.68;94.83
19005;BME280;9635;52.078;8.648;2023-08-30T16:42:33;99390.75;;;13.58;94.06
19005;BME280;9635;52.078;8.648;2023-08-30T16:47:36;99383.34;;;13.44;94.99
19005;BME280;9635;52.078;8.648;2023-08-30T16:52:59;99388.53;;;13.45;95.07
19005;BME280;9635;52.078;8.648;2023-08-30T16:58:03;99406.75;;;13.43;95.36
19005;BME280;9635;52.078;8.648;2023-08-30T17:03:06;99411.97;;;13.45;95.71
19005;BME280;9635;52.078;8.648;2023-08-30T17:08:09;99403.72;;;13.46;95.33
19005;BME280;9635;52.078;8.648;2023-08-30T17:13:13;99386.16;;;13.34;95.42
19005;BME280;9635;52.078;8.648;2023-08-30T17:18:16;99376.69;;;13.14;94.31
19005;BME280;9635;52.078;8.648;2023-08-30T17:23:19;99392.81;;;12.97;94.86
19005;BME280;9635;52.078;8.648;2023-08-30T17:28:24;99402.94;;;13.03;95.25
19005;BME280;9635;52.078;8.648;2023-08-30T17:33:27;99418.06;;;12.96;96.16
19005;BME280;9635;52.078;8.648;2023-08-30T17:38:32;99421.81;;;12.69;96.67
19005;BME280;9635;52.078;8.648;2023-08-30T17:43:39;99405.84;;;12.68;96.36
19005;BME280;9635;52.078;8.648;2023-08-30T17:48:42;99410.28;;;12.85;95.80
19005;BME280;9635;52.078;8.648;2023-08-30T17:53:46;99398.00;;;12.48;96.15
19005;BME280;9635;52.078;8.648;2023-08-30T17:58:51;99389.34;;;12.36;97.34
19005;BME280;9635;52.078;8.648;2023-08-30T18:03:54;99366.13;;;12.78;94.30
19005;BME280;9635;52.078;8.648;2023-08-30T18:08:57;99385.28;;;12.67;94.79
19005;BME280;9635;52.078;8.648;2023-08-30T18:14:02;99370.34;;;12.80;94.08
19005;BME280;9635;52.078;8.648;2023-08-30T18:19:05;99400.97;;;12.71;94.19
19005;BME280;9635;52.078;8.648;2023-08-30T18:24:12;99391.44;;;12.93;93.21
19005;BME280;9635;52.078;8.648;2023-08-30T18:29:19;99398.59;;;12.68;93.46
19005;BME280;9635;52.078;8.648;2023-08-30T18:34:22;99400.63;;;12.74;93.43
19005;BME280;9635;52.078;8.648;2023-08-30T18:39:25;99411.66;;;12.55;93.59
19005;BME280;9635;52.078;8.648;2023-08-30T18:44:29;99419.13;;;12.69;93.22
19005;BME280;9635;52.078;8.648;2023-08-30T18:49:32;99416.47;;;12.77;93.08
19005;BME280;9635;52.078;8.648;2023-08-30T18:54:35;99426.69;;;12.66;93.35
19005;BME280;9635;52.078;8.648;2023-08-30T18:59:42;99439.38;;;12.73;93.76
19005;BME280;9635;52.078;8.648;2023-08-30T19:04:45;99458.97;;;12.83;92.93
19005;BME280;9635;52.078;8.648;2023-08-30T19:09:48;99476.22;;;12.65;95.30
19005;BME280;9635;52.078;8.648;2023-08-30T19:14:52;99470.00;;;12.72;94.98
19005;BME280;9635;52.078;8.648;2023-08-30T19:19:55;99477.84;;;12.57;94.64
19005;BME280;9635;52.078;8.648;2023-08-30T19:24:58;99470.78;;;12.91;93.16
19005;BME280;9635;52.078;8.648;2023-08-30T19:30:03;99470.06;;;12.89;93.14
19005;BME280;9635;52.078;8.648;2023-08-30T19:35:06;99466.41;;;12.90;93.14
19005;BME280;9635;52.078;8.648;2023-08-30T19:40:09;99473.31;;;12.92;93.28
19005;BME280;9635;52.078;8.648;2023-08-30T19:45:14;99478.75;;;13.00;93.66
19005;BME280;9635;52.078;8.648;2023-08-30T19:50:18;99483.25;;;12.92;93.06
19005;BME280;9635;52.078;8.648;2023-08-30T19:55:22;99486.25;;;12.89;93.13
19005;BME280;9635;52.078;8.648;2023-08-30T20:00:26;99494.50;;;12.87;93.46
19005;BME280;9635;52.078;8.648;2023-08-30T20:05:29;99487.28;;;12.88;93.41
19005;BME280;9635;52.078;8.648;2023-08-30T20:10:32;99487.69;;;12.75;93.17
19005;BME280;9635;52.078;8.648;2023-08-30T20:15:37;99488.28;;;12.60;92.94
19005;BME280;9635;52.078;8.648;2023-08-30T20:20:41;99480.84;;;12.54;92.58
19005;BME280;9635;52.078;8.648;2023-08-30T20:25:44;99487.50;;;12.42;92.75
19005;BME280;9635;52.078;8.648;2023-08-30T20:30:49;99501.66;;;12.44;92.29
19005;BME280;9635;52.078;8.648;2023-08-30T20:35:53;99492.03;;;12.42;92.23
19005;BME280;9635;52.078;8.648;2023-08-30T20:40:55;99502.09;;;12.31;92.25
19005;BME280;9635;52.078;8.648;2023-08-30T20:46:00;99508.47;;;12.30;91.87
19005;BME280;9635;52.078;8.648;2023-08-30T20:51:03;99512.69;;;12.33;92.15
19005;BME280;9635;52.078;8.648;2023-08-30T20:56:07;99510.84;;;12.15;91.96
19005;BME280;9635;52.078;8.648;2023-08-30T21:01:11;99511.94;;;12.05;92.50
19005;BME280;9635;52.078;8.648;2023-08-30T21:06:15;99524.25;;;11.71;93.90
19005;BME280;9635;52.078;8.648;2023-08-30T21:11:18;99525.03;;;11.36;94.33
19005;BME280;9635;52.078;8.648;2023-08-30T21:16:23;99516.41;;;11.60;94.08
19005;BME280;9635;52.078;8.648;2023-08-30T21:21:26;99526.09;;;11.43;93.92
19005;BME280;9635;52.078;8.648;2023-08-30T21:26:28;99533.91;;;11.64;93.08
19005;BME280;9635;52.078;8.648;2023-08-30T21:31:33;99530.59;;;11.70;92.17
19005;BME280;9635;52.078;8.648;2023-08-30T21:36:36;99534.97;;;11.54;92.88
19005;BME280;9635;52.078;8.648;2023-08-30T21:41:39;99534.44;;;11.68;91.81
19005;BME280;9635;52.078;8.648;2023-08-30T21:46:43;99539.72;;;11.60;92.07
19005;BME280;9635;52.078;8.648;2023-08-30T21:51:46;99543.00;;;11.63;91.79
19005;BME280;9635;52.078;8.648;2023-08-30T21:56:49;99551.50;;;11.59;92.54
19005;BME280;9635;52.078;8.648;2023-08-30T22:01:53;99559.53;;;11.68;92.15
19005;BME280;9635;52.078;8.648;2023-08-30T22:06:56;99557.66;;;11.69;92.15
19005;BME280;9635;52.078;8.648;2023-08-30T22:11:59;99556.91;;;11.77;91.87
19005;BME280;9635;52.078;8.648;2023-08-30T22:17:04;99561.72;;;11.73;91.83
19005;BME280;9635;52.078;8.648;2023-08-30T22:22:07;99558.75;;;11.76;91.51
19005;BME280;9635;52.078;8.648;2023-08-30T22:27:10;99563.28;;;11.76;91.72
19005;BME280;9635;52.078;8.648;2023-08-30T22:32:15;99551.38;;;11.78;91.61
19005;BME280;9635;52.078;8.648;2023-08-30T22:37:19;99558.56;;;11.60;92.04
19005;BME280;9635;52.078;8.648;2023-08-30T22:42:22;99552.97;;;11.71;91.07
19005;BME280;9635;52.078;8.648;2023-08-30T22:47:27;99564.59;;;11.71;91.23
19005;BME280;9635;52.078;8.648;2023-08-30T22:52:30;99552.97;;;11.71;91.26
19005;BME280;9635;52.078;8.648;2023-08-30T22:57:32;99549.59;;;11.69;91.01
19005;BME280;9635;52.078;8.648;2023-08-30T23:02:37;99556.44;;;11.63;91.19
19005;BME280;9635;52.078;8.648;2023-08-30T23:07:40;99561.50;;;11.66;91.14
19005;BME280;9635;52.078;8.648;2023-08-30T23:12:43;99560.56;;;11.58;91.89
19005;BME280;9635;52.078;8.648;2023-08-30T23:17:50;99560.09;;;11.62;91.61
19005;BME280;9635;52.078;8.648;2023-08-30T23:22:53;99554.53;;;11.46;92.59
19005;BME280;9635;52.078;8.648;2023-08-30T23:27:57;99570.00;;;11.16;94.38
19005;BME280;9635;52.078;8.648;2023-08-30T23:33:01;99567.97;;;11.46;92.06
19005;BME280;9635;52.078;8.648;2023-08-30T23:38:05;99562.06;;;11.42;92.15
19005;BME280;9635;52.078;8.648;2023-08-30T23:43:08;99570.44;;;11.39;92.52
19005;BME280;9635;52.078;8.648;2023-08-30T23:48:12;99576.50;;;11.14;94.24
19005;BME280;9635;52.078;8.648;2023-08-30T23:53:16;99576.16;;;11.26;93.81
19005;BME280;9635;52.078;8.648;2023-08-30T23:58:20;99570.84;;;11.17;93.57
